Decoded Metar for PANN (NENANA in AK, USA) (IATA:ENN) | Meteo·Mobile Aviation Weather
aviador You're here:

PANN Decoded Metar

NENANA in AK, USA
Report Time2019-02-16 16:53:00
UTC Time2019-02-16 17:45:57
Flight Rules vfr VFR
WindVRB at 03 kt
Visibility9999 m
Phenomena:N/A
Clouds:N/A
Expected CloudBase > 1,600 ft AGL from Temp-Dew spread
CeilingNone
Temp-18°C (ISA -32)
Dew Point-22°C (71% RH)
AAT-22.7°C
QNH1019 hPa
Density Alt-3,944 ft
Elevation361 ft
Report Wrong Elevation
Raw Report
PANN 161653Z AUTO VRB03KT 10SM CLR M18/M22 A3009 RMK AO2 SLP207
T11831217 TSNO=

Extra information for PANN:More info

Metar Taf Metar & Taf Last 4 Metars F.Rules Stats Wind Profile Meteogram Temp Stats Airport Information Weather charts Add Link Nearby VenuesMetar ALERT Operation Metar Decoded Social comments

AIRNAV info for PANN